createdAt,value
2022-09-11T00:10:41.592Z,11.40
2022-09-11T00:15:40.754Z,10.80
2022-09-11T00:20:38.926Z,10.80
2022-09-11T00:30:38.795Z,10.40
2022-09-11T00:35:39.610Z,9.50
2022-09-11T00:40:46.588Z,9.50
2022-09-11T00:45:38.985Z,10.60
2022-09-11T00:50:42.647Z,10.60
2022-09-11T00:55:43.999Z,9.00
2022-09-11T01:05:41.133Z,8.80
2022-09-11T01:15:46.354Z,10.90
2022-09-11T01:20:47.235Z,10.90
2022-09-11T01:25:57.798Z,10.00
2022-09-11T01:30:42.300Z,10.00
2022-09-11T01:35:45.599Z,10.00
2022-09-11T01:40:44.889Z,10.00
2022-09-11T01:45:43.213Z,8.90
2022-09-11T01:50:44.123Z,8.90
2022-09-11T01:55:44.978Z,10.50
2022-09-11T02:00:40.130Z,10.50
2022-09-11T02:05:44.807Z,11.30
2022-09-11T02:15:53.392Z,10.30
2022-09-11T02:25:39.346Z,9.50
2022-09-11T02:30:40.470Z,9.50
2022-09-11T02:35:49.624Z,10.00
2022-09-11T02:50:40.213Z,9.60
2022-09-11T02:55:47.116Z,10.40
2022-09-11T03:00:39.413Z,10.40
2022-09-11T03:05:40.006Z,9.80
2022-09-11T03:25:39.861Z,13.00
2022-09-11T03:50:39.337Z,12.70
2022-09-11T04:05:41.065Z,13.90
2022-09-11T04:15:39.361Z,14.00
2022-09-11T04:20:39.420Z,14.00
2022-09-11T04:25:39.381Z,14.00
2022-09-11T04:35:39.708Z,11.90
2022-09-11T04:40:39.430Z,11.90
2022-09-11T04:45:40.657Z,12.80
2022-09-11T04:50:40.261Z,12.80
2022-09-11T04:55:39.461Z,12.50
2022-09-11T05:00:40.114Z,12.50
2022-09-11T05:05:39.521Z,12.20
2022-09-11T05:10:41.258Z,12.20
2022-09-11T05:15:39.525Z,13.50
2022-09-11T05:30:39.645Z,11.50
2022-09-11T05:35:39.845Z,13.00
2022-09-11T05:40:43.716Z,13.00
2022-09-11T05:45:39.675Z,14.60
2022-09-11T05:55:39.683Z,12.30
2022-09-11T06:00:41.360Z,12.30
2022-09-11T06:20:40.747Z,12.20
2022-09-11T06:25:39.695Z,13.20
2022-09-11T06:30:40.379Z,13.20
2022-09-11T06:40:39.763Z,13.10
2022-09-11T06:45:40.877Z,13.90
2022-09-11T06:50:39.963Z,13.90
2022-09-11T06:55:40.099Z,15.30
2022-09-11T07:00:39.786Z,15.30
2022-09-11T07:05:46.264Z,14.00
2022-09-11T07:10:40.159Z,14.00
2022-09-11T07:15:41.388Z,14.00
2022-09-11T07:20:40.424Z,14.00
2022-09-11T07:25:40.129Z,10.90
2022-09-11T07:30:39.981Z,10.90
2022-09-11T07:35:39.887Z,10.90
2022-09-11T07:40:39.937Z,10.90
2022-09-11T07:45:39.963Z,12.60
2022-09-11T07:50:39.935Z,12.60
2022-09-11T08:00:40.009Z,11.50
2022-09-11T08:10:40.150Z,11.80
2022-09-11T08:15:45.059Z,9.50
2022-09-11T08:25:40.522Z,11.90
2022-09-11T08:30:40.081Z,11.90
2022-09-11T08:35:40.070Z,12.40
2022-09-11T08:40:40.098Z,12.40
2022-09-11T08:45:40.139Z,9.00
2022-09-11T08:50:42.352Z,9.00
2022-09-11T08:55:51.754Z,9.70
2022-09-11T09:00:47.065Z,9.70
2022-09-11T09:05:53.270Z,9.20
2022-09-11T09:10:47.476Z,9.20
2022-09-11T09:15:48.935Z,8.50
2022-09-11T09:20:45.619Z,8.50
2022-09-11T09:25:42.027Z,8.40
2022-09-11T09:30:49.174Z,8.40
2022-09-11T09:35:42.360Z,8.00
2022-09-11T09:40:51.539Z,8.00
2022-09-11T09:46:00.238Z,8.70
2022-09-11T09:50:43.667Z,8.70
2022-09-11T09:55:41.672Z,7.50
2022-09-11T10:00:40.771Z,7.50
2022-09-11T10:05:42.049Z,8.40
2022-09-11T10:10:40.469Z,8.40
2022-09-11T10:15:41.934Z,6.80
2022-09-11T10:20:40.396Z,6.80
2022-09-11T10:25:48.848Z,8.30
2022-09-11T10:30:45.264Z,8.30
2022-09-11T10:35:49.562Z,5.80
2022-09-11T10:40:44.421Z,5.80
2022-09-11T10:45:40.461Z,5.80
2022-09-11T10:50:41.832Z,6.40
2022-09-11T10:55:47.435Z,6.40
2022-09-11T11:00:40.585Z,6.30
2022-09-11T11:05:59.006Z,5.30
2022-09-11T11:10:55.193Z,5.30
2022-09-11T11:15:59.847Z,5.90
2022-09-11T11:20:47.690Z,5.90
2022-09-11T11:25:56.521Z,3.80
2022-09-11T11:30:43.895Z,3.80
2022-09-11T11:35:56.796Z,3.80
2022-09-11T11:40:46.888Z,3.80
2022-09-11T11:45:46.971Z,3.80
2022-09-11T11:50:45.222Z,4.70
2022-09-11T11:55:47.340Z,4.70
2022-09-11T12:00:45.217Z,4.80
2022-09-11T12:05:40.719Z,4.80
2022-09-11T12:10:55.276Z,4.50
2022-09-11T12:16:01.364Z,4.50
2022-09-11T12:20:42.615Z,5.00
2022-09-11T12:25:40.747Z,5.00
2022-09-11T12:31:00.706Z,5.50
2022-09-11T12:35:48.060Z,5.50
2022-09-11T12:40:53.131Z,5.60
2022-09-11T12:45:41.240Z,5.60
2022-09-11T12:50:48.980Z,6.40
2022-09-11T12:55:51.524Z,6.40
2022-09-11T13:00:43.010Z,5.60
2022-09-11T13:05:43.473Z,5.60
2022-09-11T13:10:41.082Z,6.10
2022-09-11T13:15:42.370Z,6.10
2022-09-11T13:30:53.492Z,6.10
2022-09-11T13:40:46.518Z,7.00
2022-09-11T13:45:41.272Z,7.00
2022-09-11T13:55:45.365Z,5.80
2022-09-11T14:00:44.923Z,4.00
2022-09-11T14:10:40.981Z,7.70
2022-09-11T14:15:48.261Z,7.70
2022-09-11T14:20:43.947Z,5.50
2022-09-11T14:35:43.880Z,4.90
2022-09-11T14:40:50.100Z,4.60
2022-09-11T14:50:41.250Z,4.20
2022-09-11T14:55:41.118Z,4.20
2022-09-11T15:00:41.468Z,6.00
2022-09-11T15:05:43.159Z,6.00
2022-09-11T15:10:41.632Z,4.60
2022-09-11T15:15:41.394Z,4.60
2022-09-11T15:20:41.189Z,5.00
2022-09-11T15:25:41.391Z,5.00
2022-09-11T15:35:41.345Z,5.00
2022-09-11T15:45:42.042Z,10.40
2022-09-11T15:50:41.495Z,4.00
2022-09-11T15:55:41.275Z,4.00
2022-09-11T16:00:41.306Z,3.60
2022-09-11T16:05:41.991Z,3.60
2022-09-11T16:10:41.445Z,4.40
2022-09-11T16:20:42.933Z,4.60
2022-09-11T16:25:41.422Z,4.60
2022-09-11T16:30:44.298Z,3.90
2022-09-11T16:35:41.507Z,3.90
2022-09-11T16:45:51.474Z,4.10
2022-09-11T16:55:41.510Z,5.40
2022-09-11T17:10:44.492Z,4.90
2022-09-11T17:15:42.384Z,4.90
2022-09-11T17:20:41.663Z,5.40
2022-09-11T17:30:41.607Z,6.60
2022-09-11T17:40:41.637Z,6.30
2022-09-11T17:45:41.623Z,6.30
2022-09-11T17:50:41.591Z,6.20
2022-09-11T17:55:41.688Z,6.20
2022-09-11T18:00:41.656Z,5.60
2022-09-11T18:10:48.079Z,7.00
2022-09-11T18:20:42.385Z,4.90
2022-09-11T18:25:42.124Z,4.90
2022-09-11T18:30:42.056Z,6.00
2022-09-11T18:35:42.762Z,6.00
2022-09-11T18:55:41.769Z,5.60
2022-09-11T19:00:41.895Z,7.00
2022-09-11T19:05:41.838Z,7.00
2022-09-11T19:10:41.861Z,8.70
2022-09-11T19:15:41.864Z,8.70
2022-09-11T19:20:42.313Z,6.00
2022-09-11T19:25:42.523Z,6.00
2022-09-11T19:30:43.236Z,6.70
2022-09-11T19:35:41.872Z,6.70
2022-09-11T19:45:42.205Z,6.30
2022-09-11T19:50:42.682Z,6.40
2022-09-11T19:55:41.928Z,6.40
2022-09-11T20:05:43.021Z,7.80
2022-09-11T20:15:42.589Z,6.90
2022-09-11T20:20:45.312Z,6.80
2022-09-11T20:30:42.750Z,6.40
2022-09-11T20:40:44.650Z,6.40
2022-09-11T20:45:42.077Z,6.40
2022-09-11T21:00:43.587Z,7.50
2022-09-11T21:15:43.533Z,7.50
2022-09-11T21:20:51.813Z,8.00
2022-09-11T21:25:42.215Z,8.00
2022-09-11T21:30:42.221Z,7.50
2022-09-11T21:35:42.269Z,7.50
2022-09-11T21:40:42.177Z,7.40
2022-09-11T21:45:42.486Z,7.40
2022-09-11T21:50:42.303Z,8.70
2022-09-11T21:55:44.222Z,8.70
2022-09-11T22:00:43.268Z,10.90
2022-09-11T22:05:44.072Z,10.90
2022-09-11T22:15:45.803Z,10.10
2022-09-11T22:20:42.877Z,13.00
2022-09-11T22:25:43.674Z,13.00
2022-09-11T22:30:43.039Z,8.50
2022-09-11T22:55:43.671Z,9.20
2022-09-11T23:00:44.055Z,8.20
2022-09-11T23:15:42.480Z,8.20
2022-09-11T23:20:42.799Z,7.70
2022-09-11T23:30:42.758Z,8.80
2022-09-11T23:40:42.533Z,8.90
2022-09-11T23:45:42.549Z,8.90
